Time;durP1;ratioP1;P1;durP2;ratioP2;P2;SDS_P1;SDS_P2;PMS_P1;PMS_P2;Temp;Humidity;BMP_temperature;BMP_pressure;BME280_temperature;BME280_humidity;BME280_pressure;Samples;Min_cycle;Max_cycle;Signal;HPM_P1;HPM_P2
2022/11/26 00:01:13;;;;;;;3.78;2.20;;;;;;;3.88;62.77;94369.50;4965333;28;20221;-79
2022/11/26 00:03:39;;;;;;;4.13;1.90;;;;;;;3.86;62.91;94367.09;4965265;28;20034;-79
2022/11/26 00:06:09;;;;;;;3.15;1.50;;;;;;;3.90;63.08;94367.38;4965591;28;20019;-79
2022/11/26 00:08:35;;;;;;;5.30;1.80;;;;;;;3.84;63.52;94368.41;4965482;28;20042;-79
2022/11/26 00:11:00;;;;;;;3.40;1.70;;;;;;;3.86;63.39;94363.69;4965366;28;20031;-79
2022/11/26 00:13:28;;;;;;;4.38;2.22;;;;;;;3.86;63.63;94367.09;4965458;28;20027;-79
2022/11/26 00:15:54;;;;;;;3.30;1.90;;;;;;;3.89;63.36;94369.25;4965066;28;20329;-79
2022/11/26 00:18:25;;;;;;;4.65;2.20;;;;;;;3.94;63.44;94368.47;4965256;28;20046;-79
2022/11/26 00:20:54;;;;;;;5.80;2.75;;;;;;;3.98;63.76;94367.66;4965218;28;20019;-79
2022/11/26 00:23:25;;;;;;;9.45;3.20;;;;;;;3.99;63.80;94371.13;4965158;28;20340;-79
2022/11/26 00:25:57;;;;;;;6.13;3.50;;;;;;;3.98;64.36;94367.66;4965048;28;20019;-79
2022/11/26 00:28:31;;;;;;;6.93;3.17;;;;;;;3.98;63.92;94361.59;4965061;28;20254;-79
2022/11/26 00:30:59;;;;;;;8.07;4.53;;;;;;;3.97;64.33;94371.38;4963999;28;20022;-79
2022/11/26 00:33:26;;;;;;;5.40;3.50;;;;;;;3.93;63.85;94370.31;4965036;28;20031;-79
2022/11/26 00:35:55;;;;;;;9.00;3.90;;;;;;;3.89;64.34;94368.41;4964810;28;20038;-80
2022/11/26 00:38:21;;;;;;;11.00;5.22;;;;;;;3.85;64.42;94370.00;4963670;28;20023;-73
2022/11/26 00:40:47;;;;;;;15.10;4.57;;;;;;;3.81;64.90;94369.72;4964598;28;20027;-71
2022/11/26 00:43:14;;;;;;;9.15;4.88;;;;;;;3.80;65.33;94378.69;4964636;28;20094;-71
2022/11/26 00:45:40;;;;;;;9.07;4.05;;;;;;;3.75;65.45;94374.19;4964606;28;20042;-71
2022/11/26 00:48:06;;;;;;;7.78;4.03;;;;;;;3.74;65.36;94377.84;4964745;28;20019;-71
2022/11/26 00:50:37;;;;;;;10.00;4.70;;;;;;;3.70;65.33;94376.78;4964490;28;20026;-71
2022/11/26 00:53:03;;;;;;;8.68;4.35;;;;;;;3.70;65.80;94371.50;4964531;28;20195;-71
2022/11/26 00:55:36;;;;;;;7.15;4.15;;;;;;;3.66;65.42;94380.97;4964467;28;20086;-72
2022/11/26 00:58:03;;;;;;;11.40;4.57;;;;;;;3.63;65.40;94393.91;4964387;28;20142;-87
2022/11/26 01:00:31;;;;;;;8.73;4.03;;;;;;;3.51;65.67;94389.63;4964652;28;20037;-86
2022/11/26 01:02:57;;;;;;;11.07;4.70;;;;;;;3.42;65.89;94388.53;4964494;28;20050;-86
2022/11/26 01:05:25;;;;;;;11.82;4.05;;;;;;;3.36;66.29;94382.44;4964407;28;20027;-86
2022/11/26 01:07:52;;;;;;;8.02;4.43;;;;;;;3.32;66.47;94383.97;4964413;28;20027;-86
2022/11/26 01:10:24;;;;;;;9.18;4.63;;;;;;;3.28;66.44;94388.19;4967252;28;20067;-85
2022/11/26 01:12:50;;;;;;;8.65;4.68;;;;;;;3.20;66.67;94386.81;4970957;28;20265;-86
2022/11/26 01:15:18;;;;;;;9.65;4.55;;;;;;;3.19;66.87;94393.09;4970626;28;20344;-86
2022/11/26 01:17:44;;;;;;;8.63;4.20;;;;;;;3.16;66.85;94401.53;4971043;28;20030;-86
2022/11/26 01:20:17;;;;;;;9.43;4.53;;;;;;;3.17;67.25;94402.31;4969293;28;20023;-86
2022/11/26 01:22:43;;;;;;;11.32;4.72;;;;;;;3.11;67.05;94405.97;5001976;28;20217;-86
2022/11/26 01:25:08;;;;;;;8.25;4.95;;;;;;;3.08;66.99;94396.72;4970835;28;20019;-85
2022/11/26 01:27:34;;;;;;;12.18;4.85;;;;;;;3.04;66.79;94394.84;5001955;28;20019;-86
2022/11/26 01:29:59;;;;;;;8.98;4.50;;;;;;;3.03;67.13;94394.03;4969550;28;20265;-87
2022/11/26 01:32:24;;;;;;;10.93;4.80;;;;;;;2.99;66.96;94399.03;4969642;28;20309;-87
2022/11/26 01:34:50;;;;;;;9.63;4.55;;;;;;;2.97;66.96;94403.75;4970797;28;20023;-87
2022/11/26 01:37:15;;;;;;;8.73;4.22;;;;;;;2.90;67.13;94405.00;4970705;28;20023;-86
2022/11/26 01:39:40;;;;;;;8.70;4.70;;;;;;;2.87;67.32;94400.25;4970917;28;20019;-86
2022/11/26 01:42:12;;;;;;;9.45;4.88;;;;;;;2.84;67.50;94395.50;4970903;28;20297;-87
2022/11/26 01:44:37;;;;;;;7.40;3.70;;;;;;;2.79;67.20;94406.78;4970832;28;20037;-87
2022/11/26 01:47:24;;;;;;;9.85;4.93;;;;;;;2.78;67.72;94407.81;4970718;28;20023;-87
2022/11/26 01:50:27;;;;;;;9.35;4.78;;;;;;;2.76;67.81;94409.91;4970741;28;20023;-86
2022/11/26 01:53:10;;;;;;;14.18;5.25;;;;;;;2.71;68.01;94402.75;5001789;28;20034;-88
2022/11/26 01:55:44;;;;;;;7.85;4.55;;;;;;;2.69;68.07;94406.69;4971007;28;20054;-87
2022/11/26 01:58:13;;;;;;;8.45;4.03;;;;;;;2.68;68.21;94408.50;4970758;28;20023;-86
2022/11/26 02:00:39;;;;;;;12.77;5.88;;;;;;;2.68;68.24;94407.72;4970486;28;20031;-87
2022/11/26 02:03:06;;;;;;;13.13;5.15;;;;;;;2.65;68.27;94411.66;4971030;28;20109;-87
2022/11/26 02:05:39;;;;;;;11.70;5.22;;;;;;;2.60;68.47;94412.38;4970801;28;20035;-87
2022/11/26 02:08:06;;;;;;;9.48;5.10;;;;;;;2.60;68.39;94401.06;4971398;28;20030;-92
2022/11/26 02:10:33;;;;;;;9.90;4.88;;;;;;;2.55;68.33;94409.72;5003961;28;20014;-93
2022/11/26 02:13:00;;;;;;;10.57;5.70;;;;;;;2.56;68.27;94410.50;4972907;28;20054;-87
2022/11/26 02:15:30;;;;;;;12.48;5.18;;;;;;;2.54;68.26;94407.31;4973395;28;20079;-92
2022/11/26 02:18:24;;;;;;;11.85;5.47;;;;;;;2.53;68.23;94406.53;4973710;28;20042;-95
2022/11/26 02:20:56;;;;;;;12.50;5.75;;;;;;;2.50;68.14;94401.75;4972160;28;20035;-92
2022/11/26 02:24:11;;;;;;;13.35;4.60;;;;;;;2.49;68.38;94404.66;4969919;28;20038;-92
2022/11/26 02:26:55;;;;;;;12.57;5.60;;;;;;;2.44;68.37;94409.84;4915134;29;20032;-92
2022/11/26 02:29:44;;;;;;;15.95;5.50;;;;;;;2.42;68.44;94410.09;4967539;28;20027;-93
2022/11/26 02:32:16;;;;;;;15.20;6.00;;;;;;;2.34;68.55;94414.00;4964949;28;20050;-93
2022/11/26 02:35:03;;;;;;;10.30;5.13;;;;;;;2.35;68.64;94405.03;4971818;28;20092;-93
2022/11/26 02:37:35;;;;;;;11.48;5.32;;;;;;;2.31;68.76;94406.59;4970741;28;20074;-93
2022/11/26 02:40:01;;;;;;;11.88;5.53;;;;;;;2.32;69.19;94399.47;4972372;28;20026;-94
2022/11/26 02:42:27;;;;;;;14.65;5.65;;;;;;;2.29;69.21;94405.25;4970795;28;20036;-93
2022/11/26 02:44:57;;;;;;;13.38;6.60;;;;;;;2.28;69.45;94408.91;4970653;28;20375;-93
2022/11/26 02:47:26;;;;;;;12.07;5.53;;;;;;;2.30;69.22;94412.09;4970273;28;20038;-93
2022/11/26 02:49:54;;;;;;;18.45;6.32;;;;;;;2.28;69.16;94416.78;4970094;28;20015;-94
2022/11/26 02:52:22;;;;;;;19.63;7.15;;;;;;;2.27;68.78;94412.59;4970085;28;20020;-94
2022/11/26 02:54:49;;;;;;;12.60;5.32;;;;;;;2.25;68.67;94410.19;4969952;28;20090;-93
2022/11/26 02:57:20;;;;;;;9.80;5.07;;;;;;;2.27;68.42;94415.22;4969836;28;20061;-93
2022/11/26 02:59:46;;;;;;;8.05;4.32;;;;;;;2.22;68.24;94415.97;4970205;28;20162;-93
2022/11/26 03:02:20;;;;;;;10.32;4.97;;;;;;;2.20;68.22;94418.84;4969571;28;20027;-93
2022/11/26 03:04:58;;;;;;;8.48;3.85;;;;;;;2.20;68.02;94420.69;4970961;28;20103;-93
2022/11/26 03:07:25;;;;;;;10.00;4.85;;;;;;;2.16;67.89;94430.09;4969353;28;20034;-94
2022/11/26 03:09:59;;;;;;;10.18;4.00;;;;;;;2.15;67.86;94426.66;4967391;28;20023;-93
2022/11/26 03:12:26;;;;;;;8.02;3.90;;;;;;;2.11;67.93;94435.28;4967137;28;20025;-94
2022/11/26 03:14:54;;;;;;;5.97;3.72;;;;;;;2.07;67.86;94434.19;4967355;28;20030;-93
2022/11/26 03:17:20;;;;;;;9.60;4.38;;;;;;;1.99;68.11;94440.66;4967068;28;20114;-93
2022/11/26 03:19:46;;;;;;;9.35;4.05;;;;;;;1.98;68.09;94442.50;4966980;28;20027;-92
2022/11/26 03:22:13;;;;;;;10.38;4.45;;;;;;;1.97;68.32;94445.38;4967200;28;20066;-95
2022/11/26 03:24:38;;;;;;;7.97;4.13;;;;;;;1.94;68.26;94440.63;4966959;28;20023;-92
2022/11/26 03:27:04;;;;;;;14.00;4.63;;;;;;;1.93;68.26;94454.78;4966880;28;20376;-93
2022/11/26 03:29:30;;;;;;;14.10;4.47;;;;;;;1.85;68.45;94468.38;4966195;28;20023;-93
2022/11/26 03:31:56;;;;;;;11.45;5.35;;;;;;;1.81;68.69;94470.66;4967150;28;20026;-92
2022/11/26 03:34:37;;;;;;;16.33;5.53;;;;;;;1.76;69.09;94465.38;4965350;28;20199;-91
2022/11/26 03:37:11;;;;;;;13.10;5.78;;;;;;;1.74;69.35;94477.94;4966786;28;20317;-93
2022/11/26 03:39:37;;;;;;;10.25;5.03;;;;;;;1.71;69.63;94473.16;4966592;28;20026;-93
2022/11/26 03:42:02;;;;;;;12.02;4.30;;;;;;;1.67;69.59;94472.88;4966586;28;20321;-93
2022/11/26 03:44:28;;;;;;;9.90;5.15;;;;;;;1.66;69.20;94471.28;4966505;28;20038;-93
2022/11/26 03:46:56;;;;;;;10.68;4.93;;;;;;;1.65;68.91;94471.50;4965455;28;20022;-93
2022/11/26 03:49:21;;;;;;;9.70;4.28;;;;;;;1.58;69.80;94474.31;4967563;28;20070;-92
2022/11/26 03:51:49;;;;;;;10.40;5.03;;;;;;;1.52;70.13;94485.78;4968247;28;20019;-92
2022/11/26 03:54:15;;;;;;;10.95;4.65;;;;;;;1.47;70.25;94483.09;4967478;28;20045;-92
2022/11/26 03:56:43;;;;;;;10.15;5.22;;;;;;;1.45;71.08;94485.97;4968374;28;20043;-91
2022/11/26 03:59:11;;;;;;;10.43;5.25;;;;;;;1.47;70.88;94488.34;4968218;28;20034;-92
2022/11/26 04:01:38;;;;;;;10.15;5.55;;;;;;;1.45;71.30;94485.16;4966474;28;20343;-87
2022/11/26 04:04:04;;;;;;;11.38;5.80;;;;;;;1.49;71.24;94494.16;4965664;28;20094;-87
2022/11/26 04:06:29;;;;;;;15.30;6.55;;;;;;;1.49;71.44;94496.78;4965656;28;20090;-87
2022/11/26 04:08:55;;;;;;;10.63;4.88;;;;;;;1.47;71.44;94496.25;4965480;28;20211;-87
2022/11/26 04:11:20;;;;;;;12.02;5.07;;;;;;;1.45;71.33;94511.44;4965284;28;20046;-86
2022/11/26 04:13:45;;;;;;;9.20;4.45;;;;;;;1.42;71.15;94517.94;4965374;28;20203;-87
2022/11/26 04:16:11;;;;;;;10.65;5.05;;;;;;;1.42;71.31;94514.53;4965605;28;20109;-87
2022/11/26 04:18:37;;;;;;;12.68;6.07;;;;;;;1.39;71.20;94519.22;4965495;28;20203;-87
2022/11/26 04:21:05;;;;;;;14.50;6.38;;;;;;;1.37;71.12;94518.66;4965132;28;20033;-87
2022/11/26 04:23:31;;;;;;;11.13;5.75;;;;;;;1.38;71.43;94511.59;4965272;28;20027;-87
2022/11/26 04:25:56;;;;;;;11.88;5.50;;;;;;;1.39;71.54;94519.22;4964975;28;20033;-86
2022/11/26 04:28:22;;;;;;;10.70;5.85;;;;;;;1.39;71.41;94518.44;4965296;28;20102;-88
2022/11/26 04:30:47;;;;;;;15.93;6.72;;;;;;;1.39;71.66;94516.59;4965305;28;20232;-87
2022/11/26 04:33:12;;;;;;;13.77;5.32;;;;;;;1.34;71.57;94524.41;4965058;28;20027;-87
2022/11/26 04:35:38;;;;;;;13.57;5.90;;;;;;;1.36;71.67;94513.66;4965098;28;20078;-87
2022/11/26 04:38:03;;;;;;;11.82;5.38;;;;;;;1.35;71.46;94527.84;4965115;28;20027;-87
2022/11/26 04:40:29;;;;;;;12.23;6.63;;;;;;;1.33;71.63;94533.31;4964869;28;20226;-87
2022/11/26 04:42:54;;;;;;;11.60;5.80;;;;;;;1.34;71.62;94542.81;4964793;28;20031;-87
2022/11/26 04:45:20;;;;;;;12.02;5.90;;;;;;;1.34;71.48;94541.97;4964564;28;20030;-87
2022/11/26 04:47:45;;;;;;;11.23;5.50;;;;;;;1.34;71.26;94547.25;4964970;28;20313;-86
2022/11/26 04:50:11;;;;;;;12.38;5.13;;;;;;;1.33;71.20;94545.66;4964763;28;20027;-87
2022/11/26 04:52:36;;;;;;;14.65;6.32;;;;;;;1.33;70.95;94556.97;4965149;28;20067;-88
2022/11/26 04:55:02;;;;;;;14.18;5.35;;;;;;;1.26;70.83;94556.31;4964192;28;20074;-88
2022/11/26 04:57:28;;;;;;;15.10;6.95;;;;;;;1.25;71.05;94559.97;4965119;28;20323;-88
2022/11/26 04:59:54;;;;;;;15.13;7.35;;;;;;;1.26;71.10;94561.56;4966135;28;20023;-92
2022/11/26 05:02:19;;;;;;;20.77;8.32;;;;;;;1.26;71.21;94552.88;4965775;28;20050;-92
2022/11/26 05:04:45;;;;;;;21.58;9.90;;;;;;;1.28;71.12;94566.56;4966108;28;20027;-92
2022/11/26 05:07:11;;;;;;;18.48;9.10;;;;;;;1.25;71.31;94559.19;4965989;28;20098;-88
2022/11/26 05:09:36;;;;;;;15.15;8.07;;;;;;;1.26;71.05;94551.03;4965423;28;20030;-87
2022/11/26 05:12:02;;;;;;;14.80;8.20;;;;;;;1.24;71.27;94561.00;4963454;28;20020;-87
2022/11/26 05:14:27;;;;;;;23.80;8.90;;;;;;;1.25;71.68;94564.44;4995439;28;20518;-87
2022/11/26 05:16:53;;;;;;;18.67;8.82;;;;;;;1.21;71.38;94566.72;4995257;28;20050;-85
2022/11/26 05:19:18;;;;;;;19.52;8.85;;;;;;;1.19;71.68;94569.59;4995514;28;20027;-84
2022/11/26 05:21:43;;;;;;;18.77;9.85;;;;;;;1.21;71.98;94574.63;4964260;28;20309;-85
2022/11/26 05:24:09;;;;;;;26.42;10.90;;;;;;;1.23;71.83;94577.81;4964356;28;20027;-86
2022/11/26 05:26:35;;;;;;;24.27;11.70;;;;;;;1.18;71.92;94575.06;4965149;28;20142;-90
2022/11/26 05:29:01;;;;;;;30.38;12.30;;;;;;;1.15;72.10;94580.81;4965253;28;20050;-91
2022/11/26 05:31:27;;;;;;;29.73;13.18;;;;;;;1.16;72.09;94585.00;4965096;28;20293;-89
2022/11/26 05:33:53;;;;;;;26.80;12.77;;;;;;;1.15;72.02;94586.84;4965075;28;20027;-89
2022/11/26 05:36:18;;;;;;;33.03;13.95;;;;;;;1.17;72.28;94584.78;4964995;28;20030;-89
2022/11/26 05:38:44;;;;;;;24.42;12.75;;;;;;;1.16;72.61;94582.38;4964956;28;20034;-89
2022/11/26 05:41:09;;;;;;;27.20;13.35;;;;;;;1.16;72.47;94587.63;4965105;28;20118;-90
2022/11/26 05:43:35;;;;;;;26.30;14.18;;;;;;;1.19;72.61;94589.81;4965285;28;20023;-88
2022/11/26 05:46:05;;;;;;;95.68;41.78;;;;;;;1.18;73.01;94596.06;4964831;28;20027;-88
2022/11/26 05:48:30;;;;;;;32.97;16.92;;;;;;;1.20;73.65;94591.38;4963432;28;20035;-87
2022/11/26 05:50:57;;;;;;;24.58;11.35;;;;;;;1.24;73.64;94587.25;4964419;28;20039;-87
2022/11/26 05:53:23;;;;;;;25.15;12.38;;;;;;;1.18;73.61;94589.03;4964504;28;20063;-87
2022/11/26 05:55:48;;;;;;;18.63;9.57;;;;;;;1.15;74.08;94592.09;4964699;28;20098;-87
2022/11/26 05:58:14;;;;;;;15.55;8.48;;;;;;;1.13;73.92;94596.00;4968505;28;20034;-89
2022/11/26 06:00:39;;;;;;;20.90;9.70;;;;;;;1.07;73.54;94596.94;4967316;28;20027;-88
2022/11/26 06:03:05;;;;;;;19.75;8.82;;;;;;;1.04;74.06;94602.66;4968497;28;20030;-88
2022/11/26 06:05:30;;;;;;;18.27;8.80;;;;;;;0.99;74.94;94601.53;4968444;28;20016;-87
2022/11/26 06:07:56;;;;;;;15.57;7.65;;;;;;;0.96;76.04;94602.00;4968167;28;20209;-88
2022/11/26 06:10:21;;;;;;;15.88;7.82;;;;;;;1.02;76.07;94602.09;4999425;28;20015;-88
2022/11/26 06:12:47;;;;;;;14.68;7.30;;;;;;;1.03;76.19;94604.47;4968109;28;20235;-89
2022/11/26 06:15:12;;;;;;;15.23;7.47;;;;;;;1.01;76.69;94609.19;4968125;28;20031;-88
2022/11/26 06:17:37;;;;;;;13.13;7.43;;;;;;;1.03;77.07;94612.38;4968204;28;20046;-89
2022/11/26 06:20:04;;;;;;;13.57;6.18;;;;;;;1.03;77.73;94615.00;4966731;28;20051;-89
2022/11/26 06:22:29;;;;;;;14.85;6.88;;;;;;;1.05;78.39;94610.28;4967940;28;20023;-88
2022/11/26 06:24:55;;;;;;;12.38;6.85;;;;;;;1.06;78.88;94616.34;4968004;28;20094;-89
2022/11/26 06:27:21;;;;;;;15.23;7.28;;;;;;;1.11;79.23;94613.81;4968002;28;20423;-88
2022/11/26 06:29:46;;;;;;;10.35;5.72;;;;;;;1.07;78.69;94610.06;4998943;28;20034;-88
2022/11/26 06:32:11;;;;;;;13.75;6.65;;;;;;;1.08;78.93;94609.03;4967908;28;20069;-89
2022/11/26 06:34:37;;;;;;;20.63;9.52;;;;;;;1.08;79.40;94612.47;4968041;28;20023;-89
2022/11/26 06:37:02;;;;;;;27.58;12.02;;;;;;;1.08;79.23;94612.47;4967672;28;20194;-85
2022/11/26 06:39:28;;;;;;;12.02;7.15;;;;;;;1.12;79.28;94607.53;4967163;28;20195;-87
2022/11/26 06:41:53;;;;;;;11.82;6.03;;;;;;;1.18;79.80;94614.47;4967525;28;20023;-87
2022/11/26 06:44:19;;;;;;;12.82;5.80;;;;;;;1.27;79.67;94614.91;4967046;28;20083;-86
2022/11/26 06:46:44;;;;;;;15.05;5.63;;;;;;;1.35;79.58;94623.19;4967261;28;20031;-87
2022/11/26 06:49:10;;;;;;;10.32;6.45;;;;;;;1.43;79.47;94622.00;4967015;28;20262;-87
2022/11/26 06:51:35;;;;;;;9.82;5.97;;;;;;;1.57;79.49;94619.88;4966696;28;20377;-87
2022/11/26 06:54:01;;;;;;;11.30;5.95;;;;;;;1.64;79.19;94622.34;4967181;28;20027;-88
2022/11/26 06:56:26;;;;;;;11.05;5.97;;;;;;;1.76;79.28;94626.47;4967158;28;20270;-88
2022/11/26 06:58:55;;;;;;;10.65;5.80;;;;;;;1.78;78.57;94621.78;4967287;28;20050;-88
2022/11/26 07:01:23;;;;;;;13.35;6.55;;;;;;;1.92;78.15;94624.09;4966985;28;20037;-88
2022/11/26 07:03:49;;;;;;;11.77;5.90;;;;;;;2.01;78.07;94627.91;4967061;28;20090;-88
2022/11/26 07:06:20;;;;;;;11.57;6.75;;;;;;;2.02;77.63;94629.50;4967060;28;20030;-88
2022/11/26 07:08:46;;;;;;;8.82;6.15;;;;;;;2.13;77.33;94633.09;4966458;28;20229;-87
2022/11/26 07:11:12;;;;;;;11.27;5.80;;;;;;;2.22;77.05;94636.91;4965822;28;20027;-88
2022/11/26 07:13:38;;;;;;;14.55;6.85;;;;;;;2.31;76.82;94629.41;4966001;28;20023;-88
2022/11/26 07:16:05;;;;;;;16.48;7.25;;;;;;;2.42;76.09;94631.13;4966555;28;20069;-88
2022/11/26 07:18:31;;;;;;;15.80;6.68;;;;;;;2.46;75.44;94637.47;4966738;28;20324;-88
2022/11/26 07:20:56;;;;;;;11.30;6.05;;;;;;;2.47;75.87;94638.31;4966378;28;20070;-88
2022/11/26 07:23:22;;;;;;;15.88;7.22;;;;;;;2.44;75.76;94636.94;4997666;28;20094;-89
2022/11/26 07:25:47;;;;;;;12.07;6.70;;;;;;;2.51;75.72;94634.16;4965446;28;20055;-88
2022/11/26 07:28:13;;;;;;;16.25;7.45;;;;;;;2.58;76.02;94629.47;4966744;28;20066;-88
2022/11/26 07:30:38;;;;;;;10.23;5.97;;;;;;;2.70;75.42;94629.38;4997783;28;20023;-88
2022/11/26 07:33:04;;;;;;;9.55;5.78;;;;;;;2.69;74.55;94636.47;4966670;28;20030;-89
2022/11/26 07:35:31;;;;;;;12.98;6.13;;;;;;;2.73;74.93;94634.16;4966487;28;20027;-89
2022/11/26 07:37:57;;;;;;;15.23;6.93;;;;;;;2.76;74.71;94642.34;4966629;28;20026;-89
2022/11/26 07:40:26;;;;;;;8.43;5.40;;;;;;;2.73;74.49;94636.81;4966325;28;20034;-93
2022/11/26 07:42:51;;;;;;;14.13;6.32;;;;;;;2.70;74.54;94642.53;4966743;28;20266;-92
2022/11/26 07:45:17;;;;;;;8.75;5.05;;;;;;;2.55;74.60;94646.56;4966802;28;20026;-92
2022/11/26 07:47:42;;;;;;;11.73;5.47;;;;;;;2.60;74.77;94651.09;4966331;28;20213;-91
2022/11/26 07:50:08;;;;;;;11.30;6.38;;;;;;;2.61;74.96;94655.34;4966625;28;20058;-91
2022/11/26 07:52:33;;;;;;;11.25;6.20;;;;;;;2.63;74.38;94652.47;4966609;28;20019;-91
2022/11/26 07:54:59;;;;;;;14.68;6.80;;;;;;;2.72;74.51;94661.53;4966379;28;20043;-92
2022/11/26 07:57:24;;;;;;;13.23;7.60;;;;;;;2.81;73.78;94660.06;4966455;28;20399;-91
2022/11/26 07:59:50;;;;;;;9.82;5.85;;;;;;;2.86;73.03;94668.00;4966523;28;20031;-93
2022/11/26 08:02:16;;;;;;;8.10;5.13;;;;;;;2.78;73.15;94665.81;4966164;28;20094;-87
2022/11/26 08:04:41;;;;;;;14.52;6.07;;;;;;;2.81;72.86;94667.97;4965845;28;20027;-93
2022/11/26 08:07:06;;;;;;;10.68;6.07;;;;;;;2.89;73.14;94672.00;4966513;28;20019;-93
2022/11/26 08:09:33;;;;;;;11.13;5.97;;;;;;;2.97;73.31;94668.94;4966226;28;20090;-93
2022/11/26 08:11:59;;;;;;;11.25;6.45;;;;;;;3.06;72.63;94662.19;4965911;28;20122;-93
2022/11/26 08:14:24;;;;;;;13.15;7.32;;;;;;;3.20;72.33;94670.53;4966331;28;20026;-93
2022/11/26 08:16:50;;;;;;;14.77;6.72;;;;;;;3.18;71.48;94665.50;4966030;28;20229;-93
2022/11/26 08:19:15;;;;;;;12.30;6.25;;;;;;;3.24;71.47;94665.53;4964650;28;20050;-89
2022/11/26 08:21:41;;;;;;;13.15;7.25;;;;;;;3.19;71.14;94668.94;4965601;28;20019;-92
2022/11/26 08:24:11;;;;;;;13.23;6.50;;;;;;;3.25;71.32;94665.31;4998462;28;20042;-90
2022/11/26 08:26:36;;;;;;;14.05;7.38;;;;;;;3.37;71.20;94673.06;4966401;28;20030;-90
2022/11/26 08:29:02;;;;;;;19.25;7.57;;;;;;;3.37;70.63;94679.13;4965121;28;20384;-94
2022/11/26 08:31:28;;;;;;;12.65;6.22;;;;;;;3.36;70.27;94663.59;4965935;28;20348;-88
2022/11/26 08:33:58;;;;;;;12.15;6.28;;;;;;;3.43;70.75;94666.81;4965744;28;20147;-88
2022/11/26 08:36:24;;;;;;;14.27;8.85;;;;;;;3.59;70.65;94663.28;4964956;28;20023;-88
2022/11/26 08:38:49;;;;;;;14.27;8.38;;;;;;;3.71;70.01;94659.72;4965204;28;20059;-89
2022/11/26 08:41:15;;;;;;;13.70;7.65;;;;;;;3.81;69.09;94660.59;4965508;28;20023;-91
2022/11/26 08:43:40;;;;;;;14.93;8.57;;;;;;;3.84;69.50;94669.84;4965723;28;20305;-91
2022/11/26 08:46:06;;;;;;;19.67;8.38;;;;;;;3.84;69.19;94666.41;4965746;28;20097;-89
2022/11/26 08:48:32;;;;;;;11.57;7.53;;;;;;;3.93;69.15;94670.16;4964979;28;20062;-88
2022/11/26 08:51:00;;;;;;;18.48;8.85;;;;;;;3.97;68.80;94676.56;4964867;28;20023;-88
2022/11/26 08:53:29;;;;;;;15.20;7.88;;;;;;;4.02;68.68;94673.94;4964695;28;20046;-87
2022/11/26 08:56:02;;;;;;;13.48;8.32;;;;;;;4.10;68.14;94670.06;4964851;28;20090;-88
2022/11/26 08:58:28;;;;;;;15.38;8.90;;;;;;;4.17;68.59;94673.25;4964794;28;20033;-87
2022/11/26 09:00:53;;;;;;;11.98;7.32;;;;;;;4.31;68.12;94673.63;4964834;28;20051;-88
2022/11/26 09:03:19;;;;;;;11.00;7.10;;;;;;;4.38;66.81;94682.13;4964813;28;20368;-88
2022/11/26 09:05:45;;;;;;;15.35;7.70;;;;;;;4.46;66.96;94679.03;4964714;28;20046;-91
2022/11/26 09:08:10;;;;;;;13.00;8.07;;;;;;;4.52;66.07;94678.00;4964811;28;20114;-89
2022/11/26 09:10:36;;;;;;;24.25;8.77;;;;;;;4.59;66.15;94678.56;4964793;28;20026;-86
2022/11/26 09:13:01;;;;;;;15.00;8.75;;;;;;;4.62;65.73;94678.06;4964272;28;20080;-88
2022/11/26 09:15:27;;;;;;;19.42;8.18;;;;;;;4.62;65.74;94666.72;4964247;28;20047;-87
2022/11/26 09:17:52;;;;;;;12.38;7.78;;;;;;;4.65;65.69;94670.69;4964651;28;20090;-87
2022/11/26 09:20:18;;;;;;;19.35;8.23;;;;;;;4.66;65.94;94669.63;4964618;28;20027;-87
2022/11/26 09:22:43;;;;;;;15.50;8.07;;;;;;;4.81;66.18;94673.16;4964563;28;20023;-89
2022/11/26 09:25:09;;;;;;;14.40;7.70;;;;;;;4.89;65.30;94676.38;4963613;28;20031;-88
2022/11/26 09:27:34;;;;;;;13.98;7.30;;;;;;;4.94;64.68;94669.25;4964400;28;20035;-86
2022/11/26 09:30:00;;;;;;;15.23;7.38;;;;;;;5.07;64.35;94672.47;4964301;28;20090;-87
2022/11/26 09:32:26;;;;;;;13.20;7.97;;;;;;;5.16;63.36;94670.94;4967540;28;20194;-87
2022/11/26 09:34:51;;;;;;;13.32;7.45;;;;;;;5.20;63.75;94661.44;4968310;28;20058;-88
2022/11/26 09:37:17;;;;;;;15.60;8.38;;;;;;;5.27;63.95;94672.56;4968508;28;20023;-87
2022/11/26 09:39:43;;;;;;;13.05;7.47;;;;;;;5.37;63.69;94667.31;4968086;28;20026;-87
2022/11/26 09:42:33;;;;;;;11.95;7.20;;;;;;;5.49;62.67;94659.13;4968205;28;20027;-87
2022/11/26 09:45:25;;;;;;;15.50;7.93;;;;;;;5.50;61.61;94663.38;4968237;28;20031;-87
2022/11/26 09:47:52;;;;;;;13.43;7.97;;;;;;;5.48;62.45;94656.75;4967179;28;20023;-87
2022/11/26 09:50:37;;;;;;;16.20;9.55;;;;;;;5.45;62.72;94652.75;4966320;28;20030;-87
2022/11/26 09:53:18;;;;;;;14.52;8.70;;;;;;;5.43;62.52;94650.41;4966484;28;20043;-87
2022/11/26 09:55:48;;;;;;;15.48;9.18;;;;;;;5.50;62.62;94654.66;4997863;28;20199;-87
2022/11/26 09:58:58;;;;;;;12.70;8.40;;;;;;;5.51;62.09;94646.44;4967358;28;20097;-87
2022/11/26 10:01:24;;;;;;;20.92;8.35;;;;;;;5.49;62.66;94639.81;4967741;28;20344;-87
2022/11/26 10:03:50;;;;;;;16.23;8.38;;;;;;;5.47;61.96;94629.50;4967808;28;20023;-88
2022/11/26 10:06:28;;;;;;;16.17;9.90;;;;;;;5.49;62.18;94629.25;4967919;28;20023;-87
2022/11/26 10:09:06;;;;;;;14.93;9.18;;;;;;;5.50;62.26;94622.91;4967755;28;20071;-88
2022/11/26 10:12:04;;;;;;;16.67;8.88;;;;;;;5.49;62.67;94626.59;4967725;28;20026;-87
2022/11/26 10:14:44;;;;;;;15.05;9.13;;;;;;;5.67;62.77;94627.97;4967773;28;20106;-87
2022/11/26 10:17:31;;;;;;;16.45;9.93;;;;;;;5.86;61.76;94621.06;4967806;28;20119;-88
2022/11/26 10:19:59;;;;;;;30.30;11.80;;;;;;;5.97;62.03;94630.66;4967555;28;20023;-86
2022/11/26 10:22:36;;;;;;;26.08;12.13;;;;;;;6.02;61.77;94619.25;4967555;28;20027;-89
2022/11/26 10:25:12;;;;;;;18.63;9.65;;;;;;;6.07;61.22;94623.78;4967582;28;20042;-86
2022/11/26 10:27:38;;;;;;;22.58;10.10;;;;;;;6.15;60.70;94620.59;4967299;28;20027;-86
2022/11/26 10:30:19;;;;;;;22.40;11.20;;;;;;;6.22;60.29;94607.88;4967584;28;20023;-86
2022/11/26 10:32:48;;;;;;;22.67;12.30;;;;;;;6.21;60.93;94611.59;4967136;28;20054;-87
2022/11/26 10:35:20;;;;;;;21.52;10.77;;;;;;;6.23;60.95;94610.25;4967446;28;20031;-86
2022/11/26 10:37:46;;;;;;;21.60;9.85;;;;;;;6.39;60.34;94615.50;4967181;28;20027;-87
2022/11/26 10:40:14;;;;;;;25.25;10.95;;;;;;;6.48;59.43;94611.28;4967111;28;20137;-88
2022/11/26 10:42:47;;;;;;;18.80;10.05;;;;;;;6.51;58.64;94609.94;4966178;28;20027;-87
2022/11/26 10:45:19;;;;;;;19.92;9.82;;;;;;;6.52;58.48;94624.78;4968980;28;20321;-86
2022/11/26 10:47:45;;;;;;;14.15;8.55;;;;;;;6.47;58.59;94606.22;4967081;28;20074;-88
2022/11/26 10:50:10;;;;;;;15.60;9.38;;;;;;;6.47;58.78;94614.97;4966432;28;20098;-88
2022/11/26 10:52:37;;;;;;;18.90;10.43;;;;;;;6.57;59.97;94608.84;4967475;28;20066;-88
2022/11/26 10:55:18;;;;;;;19.35;10.65;;;;;;;6.65;59.02;94620.75;4967093;28;20038;-88
2022/11/26 10:57:49;;;;;;;15.85;9.43;;;;;;;6.58;58.00;94613.91;4967278;28;20027;-88
2022/11/26 11:00:48;;;;;;;14.65;9.45;;;;;;;6.54;58.44;94610.19;4967900;28;20202;-88
2022/11/26 11:03:25;;;;;;;18.15;10.07;;;;;;;6.49;58.99;94607.53;4966981;28;20336;-87
2022/11/26 11:06:08;;;;;;;16.90;10.15;;;;;;;6.55;59.04;94619.72;4966887;28;20261;-86
2022/11/26 11:08:33;;;;;;;14.27;8.25;;;;;;;6.67;57.93;94613.34;4966748;28;20058;-82
2022/11/26 11:11:01;;;;;;;14.80;8.45;;;;;;;6.60;57.64;94606.47;4997840;28;20039;-84
2022/11/26 11:13:44;;;;;;;14.55;7.93;;;;;;;6.58;57.93;94616.53;4966599;28;20031;-83
2022/11/26 11:16:11;;;;;;;14.27;8.65;;;;;;;6.52;58.42;94620.25;4966421;28;20050;-83
2022/11/26 11:18:46;;;;;;;15.43;8.07;;;;;;;6.47;58.18;94620.25;4966606;28;20058;-82
2022/11/26 11:21:15;;;;;;;19.25;10.30;;;;;;;6.43;58.85;94614.72;4966251;28;20034;-82
2022/11/26 11:23:40;;;;;;;16.55;9.57;;;;;;;6.49;58.81;94622.66;4966416;28;20024;-80
2022/11/26 11:26:19;;;;;;;19.98;9.30;;;;;;;6.55;58.04;94617.06;4966383;28;20091;-81
2022/11/26 11:28:51;;;;;;;20.75;10.05;;;;;;;6.61;58.35;94618.66;4966345;28;20027;-82
2022/11/26 11:31:27;;;;;;;15.02;9.10;;;;;;;6.67;57.74;94613.34;4966297;28;20043;-83
2022/11/26 11:34:12;;;;;;;20.35;9.82;;;;;;;6.77;57.20;94605.34;4966327;28;20226;-83
2022/11/26 11:36:38;;;;;;;17.20;10.82;;;;;;;6.79;57.58;94611.97;4966185;28;20023;-83
2022/11/26 11:39:03;;;;;;;16.75;9.90;;;;;;;6.98;57.16;94614.00;4966064;28;20031;-80
2022/11/26 11:41:40;;;;;;;17.70;9.05;;;;;;;6.99;55.78;94610.31;4966104;28;20034;-80